createdAt,value
2023-11-21T00:00:30.538Z,99742.69
2023-11-21T00:02:58.652Z,99744.56
2023-11-21T00:05:26.619Z,99741.66
2023-11-21T00:07:54.352Z,99740.19
2023-11-21T00:10:22.438Z,99745.41
2023-11-21T00:12:50.181Z,99744.56
2023-11-21T00:15:18.178Z,99750.03
2023-11-21T00:17:45.017Z,99748.34
2023-11-21T00:20:14.842Z,99745.00
2023-11-21T00:22:43.021Z,99746.66
2023-11-21T00:25:11.351Z,99750.03
2023-11-21T00:27:39.142Z,99755.06
2023-11-21T00:30:07.719Z,99754.59
2023-11-21T00:32:35.539Z,99761.94
2023-11-21T00:35:03.358Z,99763.84
2023-11-21T00:37:33.322Z,99767.19
2023-11-21T00:40:01.169Z,99768.69
2023-11-21T00:42:28.986Z,99766.78
2023-11-21T00:44:56.807Z,99766.38
2023-11-21T00:47:24.885Z,99765.50
2023-11-21T00:49:52.723Z,99767.38
2023-11-21T00:52:20.597Z,99768.44
2023-11-21T00:54:49.342Z,99769.28
2023-11-21T00:57:17.089Z,99771.81
2023-11-21T00:59:44.794Z,99770.94
2023-11-21T01:02:12.613Z,99778.09
2023-11-21T01:04:40.344Z,99773.28
2023-11-21T01:07:08.411Z,99777.28
2023-11-21T01:09:36.303Z,99779.13
2023-11-21T01:12:04.004Z,99786.47
2023-11-21T01:14:31.783Z,99783.09
2023-11-21T01:16:59.598Z,99782.06
2023-11-21T01:19:27.475Z,99779.53
2023-11-21T01:21:55.332Z,99786.03
2023-11-21T01:24:24.501Z,99790.44
2023-11-21T01:26:53.182Z,99791.09
2023-11-21T01:29:21.176Z,99797.78
2023-11-21T01:31:49.105Z,99792.31
2023-11-21T01:34:16.910Z,99798.63
2023-11-21T01:36:44.699Z,99797.78
2023-11-21T01:39:16.498Z,99798.44
2023-11-21T01:41:45.519Z,99789.78
2023-11-21T01:44:14.418Z,99796.09
2023-11-21T01:46:43.098Z,99799.25
2023-11-21T01:49:10.988Z,99804.06
2023-11-21T01:51:39.139Z,99811.81
2023-11-21T01:54:15.023Z,99804.53
2023-11-21T01:56:45.968Z,99803.88
2023-11-21T01:59:13.712Z,99806.78
2023-11-21T02:01:42.522Z,99815.41
2023-11-21T02:04:10.919Z,99813.06
2023-11-21T02:06:38.834Z,99819.16
2023-11-21T02:09:06.943Z,99823.59
2023-11-21T02:11:36.992Z,99822.94
2023-11-21T02:14:04.736Z,99820.88
2023-11-21T02:16:34.692Z,99828.00
2023-11-21T02:19:02.803Z,99823.59
2023-11-21T02:21:31.345Z,99823.78
2023-11-21T02:24:00.062Z,99822.94
2023-11-21T02:26:27.817Z,99824.84
2023-11-21T02:28:55.833Z,99822.94
2023-11-21T02:31:24.362Z,99816.84
2023-11-21T02:33:52.181Z,99828.41
2023-11-21T02:36:19.927Z,99822.94
2023-11-21T02:38:47.647Z,99825.47
2023-11-21T02:41:15.709Z,99826.50
2023-11-21T02:43:43.450Z,99827.34
2023-11-21T02:46:11.196Z,99827.34
2023-11-21T02:48:38.906Z,99822.94
2023-11-21T02:51:07.919Z,99820.63
2023-11-21T02:53:36.397Z,99814.13
2023-11-21T02:56:04.179Z,99821.91
2023-11-21T02:58:31.943Z,99827.34
2023-11-21T03:00:59.712Z,99816.66
2023-11-21T03:03:27.602Z,99822.94
2023-11-21T03:05:55.389Z,99818.16
2023-11-21T03:08:23.093Z,99811.63
2023-11-21T03:10:50.923Z,99819.81
2023-11-21T03:13:18.674Z,99822.13
2023-11-21T03:15:46.491Z,99825.03
2023-11-21T03:18:14.623Z,99819.56
2023-11-21T03:20:43.508Z,99824.84
2023-11-21T03:23:11.250Z,99820.41
2023-11-21T03:25:41.677Z,99822.94
2023-11-21T03:28:10.293Z,99825.69
2023-11-21T03:30:38.041Z,99831.13
2023-11-21T03:33:05.958Z,99825.88
2023-11-21T03:35:33.921Z,99829.25
2023-11-21T03:38:05.250Z,99831.78
2023-11-21T03:40:43.711Z,99831.31
2023-11-21T03:43:22.860Z,99844.75
2023-11-21T03:45:55.022Z,99839.31
2023-11-21T03:48:38.245Z,99841.19
2023-11-21T03:51:09.995Z,99833.19
2023-11-21T03:53:42.551Z,99841.38
2023-11-21T03:56:16.176Z,99847.47
2023-11-21T03:58:45.456Z,99840.97
2023-11-21T04:01:16.275Z,99847.47
2023-11-21T04:03:52.991Z,99852.28
2023-11-21T04:06:27.705Z,99848.50
2023-11-21T04:08:55.738Z,99849.38
2023-11-21T04:11:41.374Z,99855.44
2023-11-21T04:14:13.283Z,99855.44
2023-11-21T04:16:45.233Z,99858.38
2023-11-21T04:19:23.472Z,99860.06
2023-11-21T04:21:58.136Z,99860.69
2023-11-21T04:24:32.923Z,99859.84
2023-11-21T04:27:02.215Z,99860.06
2023-11-21T04:29:45.442Z,99865.06
2023-11-21T04:32:27.234Z,99860.63
2023-11-21T04:35:00.405Z,99869.88
2023-11-21T04:37:32.944Z,99874.06
2023-11-21T04:40:02.261Z,99877.44
2023-11-21T04:42:33.350Z,99877.44
2023-11-21T04:45:21.493Z,99884.56
2023-11-21T04:48:20.528Z,99882.06
2023-11-21T04:50:58.656Z,99888.34
2023-11-21T04:53:29.423Z,99886.47
2023-11-21T04:56:02.578Z,99882.91
2023-11-21T04:58:44.520Z,99879.53
2023-11-21T05:01:26.288Z,99886.66
2023-11-21T05:04:03.146Z,99887.53
2023-11-21T05:06:32.158Z,99892.97
2023-11-21T05:09:04.264Z,99899.25
2023-11-21T05:11:38.553Z,99900.28
2023-11-21T05:14:08.366Z,99908.09
2023-11-21T05:16:50.302Z,99908.09
2023-11-21T05:22:16.973Z,99908.09
2023-11-21T05:24:51.063Z,99919.41
2023-11-21T05:27:23.648Z,99916.69
2023-11-21T05:30:01.513Z,99911.41
2023-11-21T05:32:51.514Z,99917.75
2023-11-21T05:35:23.834Z,99916.88
2023-11-21T05:38:04.836Z,99909.16
2023-11-21T05:41:00.833Z,99913.56
2023-11-21T05:43:33.497Z,99916.50
2023-11-21T05:46:16.775Z,99926.16
2023-11-21T05:48:47.665Z,99932.03
2023-11-21T05:51:28.023Z,99930.38
2023-11-21T05:53:57.533Z,99921.97
2023-11-21T05:56:26.933Z,99931.22
2023-11-21T05:59:02.360Z,99932.03
2023-11-21T06:01:30.593Z,99924.94
2023-11-21T06:04:03.269Z,99931.41
2023-11-21T06:06:50.870Z,99932.03
2023-11-21T06:09:33.520Z,99934.13
2023-11-21T06:12:15.332Z,99936.00
2023-11-21T06:15:00.225Z,99932.44
2023-11-21T06:17:43.575Z,99938.09
2023-11-21T06:20:20.469Z,99942.69
2023-11-21T06:25:44.853Z,99956.34
2023-11-21T06:28:20.137Z,99958.88
2023-11-21T06:30:55.517Z,99954.25
2023-11-21T06:33:28.846Z,99970.78
2023-11-21T06:36:02.650Z,99965.16
2023-11-21T06:38:38.517Z,99977.09
2023-11-21T06:41:12.340Z,99972.69
2023-11-21T06:43:49.146Z,99977.31
2023-11-21T06:46:43.792Z,99972.25
2023-11-21T06:49:17.515Z,99973.91
2023-11-21T06:51:47.876Z,99976.84
2023-11-21T06:54:25.895Z,99984.00
2023-11-21T06:56:56.577Z,99977.69
2023-11-21T06:59:25.107Z,99984.00
2023-11-21T07:02:04.589Z,99982.28
2023-11-21T07:04:36.852Z,99989.44
2023-11-21T07:07:12.670Z,99996.56
2023-11-21T07:09:49.139Z,99998.28
2023-11-21T07:12:26.328Z,99998.63
2023-11-21T07:14:57.874Z,100002.22
2023-11-21T07:17:31.334Z,100003.25
2023-11-21T07:19:59.544Z,100010.41
2023-11-21T07:22:27.862Z,100004.09
2023-11-21T07:25:01.889Z,100013.31
2023-11-21T07:27:34.314Z,100017.94
2023-11-21T07:30:11.565Z,100021.50
2023-11-21T07:32:43.239Z,100023.38
2023-11-21T07:35:11.630Z,100020.66
2023-11-21T07:40:40.320Z,100018.78
2023-11-21T07:43:18.043Z,100021.50
2023-11-21T07:45:47.466Z,100020.25
2023-11-21T07:48:18.658Z,100019.22
2023-11-21T07:50:50.763Z,100029.28
2023-11-21T07:53:25.286Z,100032.22
2023-11-21T07:56:06.825Z,100029.50
2023-11-21T07:58:41.618Z,100043.47
2023-11-21T08:01:13.257Z,100045.13
2023-11-21T08:03:56.634Z,100045.91
2023-11-21T08:06:33.929Z,100053.25
2023-11-21T08:09:09.976Z,100058.94
2023-11-21T08:11:44.925Z,100068.53
2023-11-21T08:14:25.771Z,100070.63
2023-11-21T08:16:59.908Z,100082.47
2023-11-21T08:19:32.767Z,100078.34
2023-11-21T08:22:22.325Z,100083.22
2023-11-21T08:24:57.791Z,100082.16
2023-11-21T08:27:30.387Z,100079.25
2023-11-21T08:30:02.449Z,100088.06
2023-11-21T08:32:37.171Z,100091.44
2023-11-21T08:35:17.239Z,100096.91
2023-11-21T08:37:45.752Z,100106.38
2023-11-21T08:40:18.494Z,100094.00
2023-11-21T08:43:00.102Z,100099.63
2023-11-21T08:45:40.106Z,100103.00
2023-11-21T08:48:20.150Z,100106.56
2023-11-21T08:51:01.373Z,100116.38
2023-11-21T08:53:39.681Z,100118.91
2023-11-21T08:56:10.733Z,100118.25
2023-11-21T08:58:43.588Z,100125.19
2023-11-21T09:01:20.849Z,100129.16
2023-11-21T09:03:58.201Z,100124.94
2023-11-21T09:06:36.548Z,100135.63
2023-11-21T09:09:11.249Z,100136.84
2023-11-21T09:11:40.853Z,100129.34
2023-11-21T09:14:18.733Z,100147.00
2023-11-21T09:16:54.798Z,100156.84
2023-11-21T09:19:25.254Z,100150.75
2023-11-21T09:22:04.462Z,100159.31
2023-11-21T09:24:39.979Z,100167.47
2023-11-21T09:27:19.673Z,100164.75
2023-11-21T09:29:49.047Z,100163.09
2023-11-21T09:32:24.890Z,100164.56
2023-11-21T09:34:53.334Z,100175.88
2023-11-21T09:37:24.326Z,100166.25
2023-11-21T09:40:00.481Z,100170.03
2023-11-21T09:42:42.825Z,100165.81
2023-11-21T09:45:24.597Z,100176.03
2023-11-21T09:48:01.359Z,100180.44
2023-11-21T09:50:37.434Z,100175.88
2023-11-21T09:53:08.845Z,100184.88
2023-11-21T09:55:40.402Z,100189.28
2023-11-21T09:58:16.496Z,100196.44
2023-11-21T10:00:47.323Z,100201.63
2023-11-21T10:03:23.096Z,100206.84
2023-11-21T10:05:51.544Z,100203.47
2023-11-21T10:08:27.488Z,100204.34
2023-11-21T10:11:07.956Z,100215.03
2023-11-21T10:13:48.193Z,100210.81
2023-11-21T10:16:30.266Z,100203.69
2023-11-21T10:19:11.568Z,100211.84
2023-11-21T10:21:52.036Z,100210.81
2023-11-21T10:24:35.273Z,100211.47
2023-11-21T10:27:12.192Z,100219.66
2023-11-21T10:29:50.403Z,100221.53
2023-11-21T10:32:32.976Z,100223.41
2023-11-21T10:35:10.710Z,100225.09
2023-11-21T10:37:56.958Z,100220.31
2023-11-21T10:40:39.028Z,100227.81
2023-11-21T10:43:17.803Z,100226.16
2023-11-21T10:45:47.985Z,100228.47
2023-11-21T10:48:23.710Z,100226.41
2023-11-21T10:50:51.841Z,100226.78
2023-11-21T10:53:28.422Z,100232.03
2023-11-21T10:56:00.471Z,100229.50
2023-11-21T10:58:42.956Z,100231.78
2023-11-21T11:01:22.829Z,100233.28
2023-11-21T11:03:56.973Z,100227.81
2023-11-21T11:06:37.860Z,100236.16
2023-11-21T11:09:16.188Z,100236.38
2023-11-21T11:11:45.740Z,100239.50
2023-11-21T11:14:16.643Z,100233.56
2023-11-21T11:16:52.314Z,100234.03
2023-11-21T11:19:27.174Z,100247.47
2023-11-21T11:22:00.113Z,100248.97
2023-11-21T11:24:35.398Z,100254.41
2023-11-21T11:27:11.544Z,100269.25
2023-11-21T11:29:39.670Z,100269.25
2023-11-21T11:32:10.723Z,100265.50
2023-11-21T11:34:40.023Z,100267.41
2023-11-21T11:37:09.832Z,100275.09
2023-11-21T11:39:40.733Z,100276.59
2023-11-21T11:42:24.471Z,100274.72
2023-11-21T11:45:12.500Z,100282.69
2023-11-21T11:47:44.428Z,100286.47
2023-11-21T11:50:26.849Z,100292.56
2023-11-21T11:52:58.990Z,100291.44
2023-11-21T11:55:35.381Z,100301.88
2023-11-21T11:58:04.251Z,100303.63
2023-11-21T12:00:34.114Z,100303.09
2023-11-21T12:03:04.700Z,100305.63
2023-11-21T12:05:34.257Z,100312.78
2023-11-21T12:08:02.205Z,100313.63
2023-11-21T12:10:30.033Z,100314.47
2023-11-21T12:12:57.907Z,100313.25
2023-11-21T12:15:26.308Z,100317.66
2023-11-21T12:17:54.222Z,100318.69
2023-11-21T12:20:21.982Z,100325.19
2023-11-21T12:22:49.913Z,100335.03
2023-11-21T12:25:17.371Z,100343.97
2023-11-21T12:27:46.178Z,100348.75
2023-11-21T12:30:16.701Z,100352.53
2023-11-21T12:32:44.608Z,100361.00
2023-11-21T12:35:12.638Z,100361.09
2023-11-21T12:37:40.662Z,100365.25
2023-11-21T12:40:08.781Z,100372.00
2023-11-21T12:42:36.522Z,100371.53
2023-11-21T12:45:04.349Z,100381.28
2023-11-21T12:47:32.668Z,100387.75
2023-11-21T12:50:02.781Z,100388.41
2023-11-21T12:52:30.695Z,100395.56
2023-11-21T12:54:58.451Z,100387.03
2023-11-21T12:57:28.557Z,100395.84
2023-11-21T12:59:56.880Z,100390.03
2023-11-21T13:02:26.121Z,100400.56
2023-11-21T13:04:53.969Z,100394.63
2023-11-21T13:07:23.766Z,100403.09
2023-11-21T13:09:51.525Z,100397.00
2023-11-21T13:12:20.015Z,100398.50
2023-11-21T13:14:47.787Z,100407.84
2023-11-21T13:17:16.415Z,100406.81
2023-11-21T13:19:44.286Z,100409.53
2023-11-21T13:22:12.417Z,100403.25
2023-11-21T13:24:40.166Z,100404.06
2023-11-21T13:27:08.085Z,100410.38
2023-11-21T13:29:36.577Z,100405.13
2023-11-21T13:32:07.586Z,100410.56
2023-11-21T13:34:37.869Z,100418.53
2023-11-21T13:37:08.898Z,100413.28
2023-11-21T13:39:36.832Z,100418.75
2023-11-21T13:42:07.047Z,100418.75
2023-11-21T13:44:39.340Z,100422.47
2023-11-21T13:47:07.936Z,100426.06
2023-11-21T13:49:41.906Z,100433.38
2023-11-21T13:52:12.423Z,100433.38
2023-11-21T13:54:40.282Z,100441.56
2023-11-21T13:57:08.056Z,100433.38
2023-11-21T13:59:35.790Z,100436.28
2023-11-21T14:02:18.494Z,100439.69
2023-11-21T14:04:56.073Z,100445.66
2023-11-21T14:07:31.636Z,100447.16
2023-11-21T14:09:59.639Z,100448.84
2023-11-21T14:12:27.425Z,100449.91
2023-11-21T14:14:56.290Z,100451.78
2023-11-21T14:17:25.665Z,100449.78
2023-11-21T14:19:53.979Z,100466.78
2023-11-21T14:22:22.313Z,100462.19
2023-11-21T14:24:51.504Z,100467.63
2023-11-21T14:27:19.424Z,100472.06
2023-11-21T14:29:47.193Z,100474.13
2023-11-21T14:32:15.765Z,100480.09
2023-11-21T14:34:46.802Z,100482.16
2023-11-21T14:37:15.211Z,100486.59
2023-11-21T14:39:46.309Z,100492.59
2023-11-21T14:42:16.352Z,100491.66
2023-11-21T14:44:44.434Z,100492.34
2023-11-21T14:47:16.606Z,100505.72
2023-11-21T14:49:53.825Z,100504.31
2023-11-21T14:52:34.201Z,100506.88
2023-11-21T14:55:15.941Z,100516.91
2023-11-21T14:57:48.524Z,100520.22
2023-11-21T15:00:36.542Z,100516.72
2023-11-21T15:03:03.661Z,100532.66
2023-11-21T15:05:31.568Z,100537.88
2023-11-21T15:08:09.475Z,100537.94
2023-11-21T15:10:47.100Z,100540.56
2023-11-21T15:13:13.899Z,100535.25
2023-11-21T15:15:41.726Z,100540.97
2023-11-21T15:18:13.197Z,100540.09
2023-11-21T15:20:40.978Z,100541.06
2023-11-21T15:23:09.594Z,100535.91
2023-11-21T15:25:37.386Z,100538.38
2023-11-21T15:28:05.909Z,100541.19
2023-11-21T15:30:34.415Z,100543.78
2023-11-21T15:33:02.296Z,100543.59
2023-11-21T15:35:30.075Z,100554.81
2023-11-21T15:38:00.001Z,100559.25
2023-11-21T15:40:27.866Z,100560.38
2023-11-21T15:42:55.560Z,100561.75
2023-11-21T15:45:25.770Z,100565.22
2023-11-21T15:47:54.047Z,100569.66
2023-11-21T15:50:21.850Z,100581.84
2023-11-21T15:52:57.217Z,100580.25
2023-11-21T15:55:26.047Z,100588.56
2023-11-21T15:57:53.775Z,100588.09
2023-11-21T16:00:24.079Z,100594.91
2023-11-21T16:02:52.331Z,100599.13
2023-11-21T16:05:20.241Z,100600.59
2023-11-21T16:07:48.918Z,100600.50
2023-11-21T16:10:17.207Z,100608.47
2023-11-21T16:12:44.979Z,100606.03
2023-11-21T16:15:13.034Z,100617.69
2023-11-21T16:17:43.029Z,100620.81
2023-11-21T16:20:12.271Z,100621.94
2023-11-21T16:22:40.311Z,100630.84
2023-11-21T16:25:12.083Z,100633.09
2023-11-21T16:27:39.889Z,100636.50
2023-11-21T16:30:07.676Z,100629.06
2023-11-21T16:32:37.025Z,100634.16
2023-11-21T16:35:04.950Z,100636.38
2023-11-21T16:37:33.159Z,100647.13
2023-11-21T16:40:01.214Z,100644.56
2023-11-21T16:42:31.528Z,100647.13
2023-11-21T16:44:59.340Z,100645.78
2023-11-21T16:47:29.581Z,100650.75
2023-11-21T16:49:59.568Z,100656.75
2023-11-21T16:52:27.497Z,100656.97
2023-11-21T16:54:55.432Z,100665.78
2023-11-21T16:57:23.708Z,100669.53
2023-11-21T16:59:52.271Z,100688.81
2023-11-21T17:02:20.630Z,100684.47
2023-11-21T17:04:50.805Z,100684.47
2023-11-21T17:07:24.124Z,100686.50
2023-11-21T17:09:52.268Z,100687.56
2023-11-21T17:12:20.365Z,100701.34
2023-11-21T17:14:50.213Z,100712.09
2023-11-21T17:17:18.448Z,100705.97
2023-11-21T17:19:46.664Z,100703.41
2023-11-21T17:22:14.462Z,100714.81
2023-11-21T17:24:44.244Z,100718.91
2023-11-21T17:27:12.495Z,100724.88
2023-11-21T17:29:40.846Z,100720.81
2023-11-21T17:32:08.994Z,100722.50
2023-11-21T17:34:36.867Z,100726.41
2023-11-21T17:37:05.496Z,100727.16
2023-11-21T17:39:33.488Z,100727.16
2023-11-21T17:42:01.956Z,100732.28
2023-11-21T17:44:29.858Z,100731.81
2023-11-21T17:46:58.282Z,100726.53
2023-11-21T17:49:27.400Z,100742.50
2023-11-21T17:51:56.362Z,100737.75
2023-11-21T17:54:24.623Z,100751.91
2023-11-21T17:56:53.529Z,100756.13
2023-11-21T17:59:21.433Z,100760.91
2023-11-21T18:01:49.407Z,100769.41
2023-11-21T18:04:17.308Z,100766.84
2023-11-21T18:06:45.886Z,100771.97
2023-11-21T18:09:14.267Z,100770.94
2023-11-21T18:11:42.302Z,100776.22
2023-11-21T18:14:11.800Z,100785.59
2023-11-21T18:16:40.125Z,100787.78
2023-11-21T18:19:09.640Z,100792.56
2023-11-21T18:21:37.453Z,100781.00
2023-11-21T18:24:05.269Z,100790.00
2023-11-21T18:26:33.088Z,100794.81
2023-11-21T18:29:00.841Z,100800.63
2023-11-21T18:31:28.811Z,100804.25
2023-11-21T18:33:56.808Z,100800.50
2023-11-21T18:36:24.654Z,100809.16
2023-11-21T18:38:52.555Z,100809.53
2023-11-21T18:41:20.815Z,100808.47
2023-11-21T18:43:48.740Z,100814.97
2023-11-21T18:46:17.095Z,100816.19
2023-11-21T18:48:48.598Z,100822.66
2023-11-21T18:51:17.173Z,100824.50
2023-11-21T18:53:45.043Z,100832.16
2023-11-21T18:56:12.819Z,100833.19
2023-11-21T18:58:40.575Z,100834.88
2023-11-21T19:01:08.349Z,100847.81
2023-11-21T19:03:36.243Z,100842.56
2023-11-21T19:06:04.094Z,100844.94
2023-11-21T19:08:31.826Z,100853.28
2023-11-21T19:10:59.633Z,100853.97
2023-11-21T19:13:29.228Z,100862.47
2023-11-21T19:15:57.114Z,100875.94
2023-11-21T19:18:24.864Z,100867.91
2023-11-21T19:20:52.583Z,100879.66
2023-11-21T19:23:21.775Z,100884.28
2023-11-21T19:25:49.617Z,100887.84
2023-11-21T19:28:17.699Z,100884.63
2023-11-21T19:30:45.419Z,100896.56
2023-11-21T19:33:13.573Z,100897.75
2023-11-21T19:35:41.394Z,100904.41
2023-11-21T19:38:11.209Z,100912.22
2023-11-21T19:40:41.087Z,100921.06
2023-11-21T19:43:08.982Z,100928.94
2023-11-21T19:45:36.732Z,100931.81
2023-11-21T19:48:06.129Z,100930.97
2023-11-21T19:50:34.082Z,100939.63
2023-11-21T19:53:01.837Z,100933.84
2023-11-21T19:55:29.562Z,100942.84
2023-11-21T19:57:57.420Z,100945.41
2023-11-21T20:00:26.545Z,100950.03
2023-11-21T20:02:54.462Z,100959.53
2023-11-21T20:05:22.277Z,100964.66
2023-11-21T20:07:50.085Z,100973.53
2023-11-21T20:10:19.377Z,100969.59
2023-11-21T20:12:55.202Z,100975.41
2023-11-21T20:15:23.698Z,100975.22
2023-11-21T20:17:51.746Z,100980.50
2023-11-21T20:20:19.594Z,100987.81
2023-11-21T20:22:48.005Z,100996.66
2023-11-21T20:25:19.423Z,100991.56
2023-11-21T20:27:48.061Z,100992.59
2023-11-21T20:30:15.793Z,100998.38
2023-11-21T20:32:43.573Z,100994.13
2023-11-21T20:35:12.109Z,101004.66
2023-11-21T20:37:40.107Z,101003.28
2023-11-21T20:40:09.109Z,101016.41
2023-11-21T20:42:37.190Z,101018.09
2023-11-21T20:45:05.470Z,101022.19
2023-11-21T20:47:34.203Z,101025.91
2023-11-21T20:50:02.861Z,101028.63
2023-11-21T20:52:30.625Z,101024.56
2023-11-21T20:54:58.475Z,101031.38
2023-11-21T20:57:26.244Z,101030.00
2023-11-21T20:59:54.047Z,101033.75
2023-11-21T21:02:21.857Z,101042.59
2023-11-21T21:04:49.641Z,101046.00
2023-11-21T21:07:17.590Z,101043.97
2023-11-21T21:09:45.326Z,101054.69
2023-11-21T21:12:13.709Z,101064.38
2023-11-21T21:14:41.417Z,101060.97
2023-11-21T21:17:09.480Z,101056.41
2023-11-21T21:19:37.912Z,101058.59
2023-11-21T21:22:05.857Z,101065.41
2023-11-21T21:24:34.112Z,101066.75
2023-11-21T21:27:02.014Z,101064.72
2023-11-21T21:29:29.786Z,101079.00
2023-11-21T21:31:57.529Z,101079.69
2023-11-21T21:34:26.426Z,101074.91
2023-11-21T21:36:54.336Z,101077.97
2023-11-21T21:39:22.083Z,101080.69
2023-11-21T21:41:50.108Z,101083.44
2023-11-21T21:44:17.859Z,101088.50
2023-11-21T21:46:45.888Z,101092.28
2023-11-21T21:49:14.842Z,101099.56
2023-11-21T21:51:42.595Z,101104.84
2023-11-21T21:54:10.624Z,101102.47
2023-11-21T21:56:39.460Z,101096.63
2023-11-21T21:59:08.394Z,101106.13
2023-11-21T22:01:38.762Z,101113.59
2023-11-21T22:04:08.077Z,101123.47
2023-11-21T22:06:36.596Z,101127.38
2023-11-21T22:09:04.511Z,101125.13
2023-11-21T22:11:32.336Z,101122.06
2023-11-21T22:14:00.358Z,101112.22
2023-11-21T22:16:29.623Z,101108.34
2023-11-21T22:18:57.394Z,101115.69
2023-11-21T22:21:25.575Z,101115.13
2023-11-21T22:23:53.376Z,101118.72
2023-11-21T22:26:21.829Z,101121.59
2023-11-21T22:28:51.396Z,101120.44
2023-11-21T22:31:19.245Z,101115.44
2023-11-21T22:33:47.074Z,101113.75
2023-11-21T22:36:14.785Z,101110.84
2023-11-21T22:38:43.001Z,101111.38
2023-11-21T22:41:10.797Z,101122.28
2023-11-21T22:43:38.670Z,101128.38
2023-11-21T22:46:07.804Z,101128.56
2023-11-21T22:48:35.845Z,101133.53
2023-11-21T22:51:04.716Z,101122.56
2023-11-21T22:53:32.502Z,101132.81
2023-11-21T22:56:00.412Z,101134.88
2023-11-21T22:58:31.079Z,101139.13
2023-11-21T23:00:59.306Z,101154.59
2023-11-21T23:03:27.660Z,101151.53
2023-11-21T23:05:55.485Z,101145.97
2023-11-21T23:08:24.029Z,101151.06
2023-11-21T23:10:52.074Z,101149.88
2023-11-21T23:13:20.780Z,101158.41
2023-11-21T23:15:50.915Z,101161.28
2023-11-21T23:18:26.798Z,101161.63
2023-11-21T23:20:54.556Z,101170.78
2023-11-21T23:23:24.768Z,101170.78
2023-11-21T23:25:52.569Z,101169.09
2023-11-21T23:28:21.278Z,101166.19
2023-11-21T23:30:49.226Z,101163.75
2023-11-21T23:33:17.204Z,101168.16
2023-11-21T23:35:44.972Z,101164.16
2023-11-21T23:38:13.175Z,101165.44
2023-11-21T23:40:40.949Z,101180.59
2023-11-21T23:43:09.658Z,101181.38
2023-11-21T23:45:37.533Z,101181.91
2023-11-21T23:48:05.408Z,101186.34
2023-11-21T23:50:33.271Z,101191.69
2023-11-21T23:53:01.185Z,101194.41
2023-11-21T23:55:29.245Z,101190.84
2023-11-21T23:57:57.008Z,101186.91
